UK Observations

KGNC 240915Z AUTO 00000KT 10SM CLR 18/05 A2996 RMK AO2 T01820046 EGEO 240920Z 08005KT 060V130 9999 BKN025 15/11 Q1019 EGNO 240920Z 10004KT 070V150 9999 BKN015 19/18 Q1015 EGAA 240850Z 06005KT 9999 SCT010 OVC026 15/13 Q1017 EGAC 240850Z AUTO 02006KT 9999 BKN009/// OVC014/// 14/13 Q1017 EGAE 240850Z 05011KT 9999 VCSH SCT008 OVC012 14/12 Q1017 EGBB 240850Z 01004KT 340V080 3000 HZ OVC004 16/16 Q1015 EGBJ 240850Z 33002KT 5000 HZ SCT008 BKN018 18/16 Q1015 EGCC 240850Z AUTO VRB02KT 9999 FEW013 18/15 Q1015 TEMPO SHRA EGDM 240850Z 19004KT 9000 -RA FEW120 OVC140 19/16 Q1015 NOSIG RMK BLU BLU EGDR 240850Z 20005KT 4000 BR FEW004 SCT008 OVC020 16/15 Q1016 GRN EGDY 240850Z 29005KT 5000 HZ FEW010 BKN035 20/17 Q1015 NOSIG RMK WHT WHT EGFF 240850Z AUTO 30010KT 4300 HZ OVC003 16/15 Q1016 EGGD 240850Z AUTO 25006KT 220V290 9999 SCT009 SCT033 19/16 Q1016 EGGP 240850Z VRB03KT 8000 FEW012 OVC015 18/15 Q1015 EGGW 240850Z AUTO 21004KT 160V240 9999 NCD 24/18 Q1015 EGHE 240850Z 17007KT 9999 BKN023 16/15 Q1016 EGHH 240850Z 27009KT 7000 FEW038 19/16 Q1015 EGHI 240850Z VRB03KT 9999 FEW040 18/15 Q1015 EGJA 240850Z 27008KT 0200 R26/0375 FG VV/// 14/14 Q1017 EGJB 240850Z 29003KT 9999 4500W FEW001 BKN002 BKN003 14/14 Q1017 EGJJ 240850Z 29006KT 250V320 0300 R26/0275 FG SCT000 BKN001 14/14 Q1017 EGKA 240850Z 20007KT 9999 SCT048 18/16 Q1015 EGKB 240850Z 20007KT 170V230 CAVOK 21/19 Q1015 EGKK 240850Z VRB03KT 9999 -RA NSC 22/18 Q1015 EGLC 240850Z 20006KT 120V250 9999 NSC 24/18 Q1015 EGLF 240850Z AUTO 23006KT 200V260 9999 NCD 20/17 Q1015 EGLL 240850Z AUTO 18005KT 140V230 9999 NCD 22/18 Q1015 NOSIG EGMC 240850Z 20008KT 170V230 CAVOK 23/17 Q1015 EGMD 240850Z 22009KT CAVOK 20/17 Q1015 EGNH 240850Z 12009KT 9999 BKN027 18/16 Q1015 EGNJ 240850Z 36004KT 310V030 6000 BKN009 19/17 Q1015 EGNM 240850Z 03006KT 360V080 0600 R32/1000 FG SCT002 BKN003 14/14 Q1016 EGNS 240850Z 07008KT CAVOK 18/14 Q1015 NOSIG EGNT 240850Z 05005KT 0900 R07/0900 FG OVC001 14/// Q1017 EGNV 240850Z 02008KT 3500 BR SCT003 OVC005 15/14 Q1016 EGNX 240850Z VRB03KT 1400 R27/P1500 BR OVC003 15/15 Q1015 EGOS 240850Z 15003KT 3500 BR OVC005 16/15 Q1015 BECMG 4000 BKN007 RMK YLO1 BECMG GRN EGOV 240850Z 20006KT 9999 FEW015 BKN026 18/16 Q1015 NOSIG RMK BLU BLU EGPA 240850Z 09011KT 2500 BR BKN003 OVC004 12/12 Q1024 EGPB 240850Z 07011KT 9999 SCT009 13/11 Q1027 TEMPO BKN010 EGPC 240850Z 09011KT 9999 -RA FEW003 BKN045 12/11 Q1023 EGPD 240850Z 05009KT 8000 -RA SCT004 OVC009 12/11 Q1022 TEMPO RA EGPE 240850Z 03010KT 4000 RADZ FEW004 SCT008 BKN015 12/12 Q1022 EGPF 240850Z AUTO 06012KT 9999 OVC006/// //////CB 13/12 Q1018 EGPH 240850Z 05010KT 1700 -RADZ OVC003 12/12 Q1019 EGPK 240850Z 05008KT 9999 FEW022 BKN031 16/13 Q1018 EGPL 240850Z 06011KT CAVOK 16/11 Q1020 EGPM 240850Z 09015KT 9999 FEW013 12/10 Q1028 NOSIG EGPN 240850Z 07010KT 040V100 9999 BKN008 OVC014 13/12 Q1019 EGPO 240850Z 03007KT 9999 FEW022 14/11 Q1021 EGPU 240850Z AUTO 05012KT 9999 NCD 16/09 Q1018 EGQK 240850Z AUTO 07010KT 7000 RA BKN006/// 12/11 Q1022 EGQL 240850Z 06014KT 7000 BR OVC004 12/12 Q1019 YLO2 EGQS 240850Z 09012KT 7000 -RA FEW004 BKN008 BKN030 12/11 Q1022 RERA TEMPO SCT004 BKN008 RMK GRN TEMPO YLO2 EGSC 240850Z VRB01KT 9000 NSC 24/18 Q1014 EGSH 240850Z 13008KT 100V170 CAVOK 24/19 Q1015 NOSIG EGSS 240850Z AUTO 16007KT 9999 NCD 23/19 Q1015 EGTC 240850Z 04004KT 350V080 7000 NSC 20/17 Q1015 EGTE 240850Z 30006KT 260V340 3500 HZ BKN007 17/15 Q1016 EGUB 240850Z 22003KT 8000 -RA FEW070 SCT100 OVC250 20/17 Q1015 NOSIG RMK BLU BLU EGUL 240856Z AUTO 00000KT 9999 BKN190 25/20 A2994 RMK AO2 SLP141 T02520195 52004 $ EGUN 240857Z COR VRB03KT 9999 FEW150 BKN190 25/22 A2995 RMK AO2A SLP145 T02510224 52004 $ COR 0857 EGUN 240857Z VRB03KT 9999 RA FEW150 BKN190 25/22 A2995 RMK AO2A SLP145 T02510224 52004 $ EGVA 240856Z AUTO M M M CLR 18/16 A2998 RMK AO2 SLP153 T01830164 50015 RVRNO $ EGVN 240850Z 10002KT 9999 -RA FEW020 BKN150 19/16 Q1015 NOSIG EGVN 240850Z 10002KT 9999 -RA FEW020 BKN150 19/16 Q1015 NOSIG RMK BLU BLU EGWU 240850Z 18005KT CAVOK 23/18 Q1014 NOSIG EGWU 240850Z 18005KT CAVOK 23/18 Q1014 NOSIG RMK BLU BLU EGXC 240850Z 36004KT CAVOK 21/17 Q1015 NOSIG RMK BLU BLU EGXT 240850Z AUTO 01005KT 8000 HZ FEW005/// OVC170/// 19/17 Q1014 EGYD 240850Z 36004KT 4500 HZ FEW006 BKN180 BKN250 19/17 Q1015 BECMG 9999 NSW RMK GRN BECMG BLU KGNC 240855Z AUTO 36003KT 10SM CLR 19/04 A2996 RMK AO2 T01920040 EGCN 240850Z 35006KT 320V030 5000 BR BKN004 16/15 Q1016 EGEC 240850Z 07015KT 9999 FEW010 SCT027 BKN045 15/13 Q1016 EGEO 240850Z 08006KT 9999 FEW025 BKN031 15/11 Q1018 EGHQ 240850Z VRB03KT 9999 BKN007 15/14 Q1017 EGNO 240850Z 10007KT 070V130 9999 FEW024 SCT030 19/17 Q1015 EGNR 240850Z 17007KT 5000 HZ OVC010 17/15 Q1016 EGOM 240850Z 06010KT 0200 FG VV/// 13/13 Q1016 RED EGOP 240850Z 21007KT 1000 BR OVC002 15/15 Q1015 AMB EGOW 240850Z 13005KT 9999 FEW024 SCT032 BKN090 18/15 Q1015 RMK BLU EGPI 240850Z AUTO 05009KT 360V090 9999 OVC026/// 15/12 Q1017 EGQA 240850Z 05010KT 9999 5000W -RADZ FEW005 SCT011 OVC017 13/// Q1023 RMK GRN EGUW 240850Z 14008KT CAVOK 22/18 Q1015 NOSIG RMK BLU BLU EGVO 240850Z 20005KT 9999 FEW040 OVC090 20/18 Q1015 RMK BLU EGVP 240850Z 22005KT 8000 HZ FEW050 SCT080 BKN100 19/17 Q1015 NOSIG RMK BLU BLU EGWC 240850Z 07005KT 3000 BR OVC005 16/16 Q1016 RMK YLO1 EGXE 240850Z 35008KT 2500 BR OVC003 15/14 Q1016 BECMG 5000 HZ BKN007 RMK YLO2 BECMG GRN EGXP 240850Z AUTO 01005KT 8000 // FEW004/// SCT190/// 18/16 Q1015 EGXS 240850Z 33005KT 8000 HZ FEW060 BKN300 17/15 Q1015 BLU EGXU 240850Z 33007KT 5000 BR OVC004 16/15 Q1015 BECMG BKN005 RMK YLO2 BECMG YLO1 EGXV 240850Z AUTO 03003KT 8000 HZ BKN008/// 19/17 Q1015 EGXW 240850Z 02005KT 8000 HZ FEW010 SCT150 BKN190 19/16 Q1015 TEMPO SCT010 RMK BLU TEMPO GRN EGXZ 240850Z AUTO 34009KT 3800 BR OVC002/// 16/15 Q1016 EGYE 240850Z 35003KT 3000 BR SCT005 BKN180 BKN250 ///// Q1015 RMK YLO1 EGYH 240850Z 05007KT CAVOK 20/17 Q1015 RMK BLU EGYM 240850Z 17004KT CAVOK 25/19 Q1014 NOSIG RMK BLU BLU EGTK 240850Z 01002KT 6000 NSC 19/17 Q1014